createdAt,value
2023-01-19T00:02:06.002Z,-0.46
2023-01-19T00:05:10.515Z,-0.57
2023-01-19T00:08:18.615Z,-0.55
2023-01-19T00:11:23.479Z,-0.52
2023-01-19T00:14:32.337Z,-0.46
2023-01-19T00:17:36.609Z,-0.54
2023-01-19T00:20:42.577Z,-0.63
2023-01-19T00:23:53.660Z,-0.50
2023-01-19T00:27:09.410Z,-0.58
2023-01-19T00:30:19.626Z,-0.58
2023-01-19T00:33:21.743Z,-0.56
2023-01-19T00:36:27.688Z,-0.56
2023-01-19T00:39:32.130Z,-0.43
2023-01-19T00:42:46.063Z,-0.52
2023-01-19T00:45:47.880Z,-0.60
2023-01-19T00:48:49.599Z,-0.50
2023-01-19T00:51:51.415Z,-0.54
2023-01-19T00:54:53.212Z,-0.50
2023-01-19T00:58:00.419Z,-0.41
2023-01-19T01:01:04.931Z,-0.52
2023-01-19T01:04:09.161Z,-0.53
2023-01-19T01:07:11.003Z,-0.58
2023-01-19T01:10:20.614Z,-0.43
2023-01-19T01:13:23.619Z,-0.57
2023-01-19T01:16:26.780Z,-0.45
2023-01-19T01:19:28.827Z,-0.56
2023-01-19T01:22:31.873Z,-0.44
2023-01-19T01:25:41.666Z,-0.46
2023-01-19T01:28:52.014Z,-0.51
2023-01-19T01:31:58.845Z,-0.53
2023-01-19T01:35:01.210Z,-0.41
2023-01-19T01:38:19.362Z,-0.56
2023-01-19T01:41:34.416Z,-0.55
2023-01-19T01:45:00.064Z,-0.43
2023-01-19T01:48:12.435Z,-0.39
2023-01-19T01:51:30.418Z,-0.44
2023-01-19T01:54:45.846Z,-0.43
2023-01-19T01:57:54.081Z,-0.47
2023-01-19T02:01:14.443Z,-0.54
2023-01-19T02:04:19.052Z,-0.53
2023-01-19T02:07:52.086Z,-0.58
2023-01-19T02:11:14.436Z,-0.50
2023-01-19T02:14:21.374Z,-0.53
2023-01-19T02:17:33.837Z,-0.50
2023-01-19T02:20:41.731Z,-0.46
2023-01-19T02:24:05.637Z,-0.48
2023-01-19T02:27:19.075Z,-0.48
2023-01-19T02:30:21.442Z,-0.47
2023-01-19T02:33:31.160Z,-0.55
2023-01-19T02:37:15.526Z,-0.49
2023-01-19T02:40:26.947Z,-0.49
2023-01-19T02:43:35.798Z,-0.58
2023-01-19T02:46:43.907Z,-0.60
2023-01-19T02:50:02.870Z,-0.62
2023-01-19T02:53:18.354Z,-0.53
2023-01-19T02:56:57.646Z,-0.54
2023-01-19T03:00:19.913Z,-0.61
2023-01-19T03:03:40.151Z,-0.65
2023-01-19T03:07:18.899Z,-0.58
2023-01-19T03:11:02.758Z,-0.64
2023-01-19T03:14:11.201Z,-0.73
2023-01-19T03:17:20.964Z,-0.73
2023-01-19T03:20:32.427Z,-0.71
2023-01-19T03:23:38.929Z,-0.74
2023-01-19T03:27:00.124Z,-0.79
2023-01-19T03:30:12.424Z,-0.84
2023-01-19T03:33:29.687Z,-0.70
2023-01-19T03:36:38.309Z,-0.72
2023-01-19T03:39:40.477Z,-0.73
2023-01-19T03:42:47.783Z,-0.90
2023-01-19T03:45:57.388Z,-0.81
2023-01-19T03:49:02.361Z,-0.96
2023-01-19T03:52:08.186Z,-0.84
2023-01-19T03:55:12.417Z,-0.91
2023-01-19T03:58:14.481Z,-0.86
2023-01-19T04:01:21.316Z,-1.03
2023-01-19T04:04:23.188Z,-0.92
2023-01-19T04:07:25.125Z,-1.05
2023-01-19T04:10:31.645Z,-1.12
2023-01-19T04:13:39.146Z,-1.01
2023-01-19T04:16:46.719Z,-1.17
2023-01-19T04:19:54.575Z,-1.15
2023-01-19T04:23:22.428Z,-1.21
2023-01-19T04:26:32.249Z,-1.29
2023-01-19T04:29:36.185Z,-1.27
2023-01-19T04:32:37.933Z,-1.25
2023-01-19T04:35:39.829Z,-1.24
2023-01-19T04:38:41.759Z,-1.35
2023-01-19T04:41:44.022Z,-1.39
2023-01-19T04:44:46.048Z,-1.40
2023-01-19T04:47:47.855Z,-1.33
2023-01-19T04:50:51.468Z,-1.43
2023-01-19T04:53:53.222Z,-1.44
2023-01-19T04:56:55.136Z,-1.51
2023-01-19T04:59:57.660Z,-1.44
2023-01-19T05:03:00.001Z,-1.44
2023-01-19T05:06:02.023Z,-1.44
2023-01-19T05:09:04.504Z,-1.58
2023-01-19T05:12:06.304Z,-1.45
2023-01-19T05:15:09.663Z,-1.47
2023-01-19T05:18:11.431Z,-1.49
2023-01-19T05:21:13.178Z,-1.59
2023-01-19T05:24:15.598Z,-1.53
2023-01-19T05:27:17.447Z,-1.66
2023-01-19T05:30:19.384Z,-1.63
2023-01-19T05:33:22.160Z,-1.66
2023-01-19T05:36:23.947Z,-1.76
2023-01-19T05:39:26.819Z,-1.73
2023-01-19T05:42:28.576Z,-1.77
2023-01-19T05:45:30.639Z,-1.78
2023-01-19T05:48:32.843Z,-1.79
2023-01-19T05:51:38.494Z,-1.83
2023-01-19T05:54:40.510Z,-1.76
2023-01-19T05:57:43.262Z,-1.90
2023-01-19T06:00:44.994Z,-1.84
2023-01-19T06:03:48.824Z,-1.80
2023-01-19T06:06:51.099Z,-1.89
2023-01-19T06:09:52.900Z,-1.93
2023-01-19T06:12:54.699Z,-2.00
2023-01-19T06:15:58.634Z,-1.92
2023-01-19T06:19:00.480Z,-2.00
2023-01-19T06:22:03.014Z,-2.04
2023-01-19T06:25:06.168Z,-1.92
2023-01-19T06:28:07.921Z,-1.97
2023-01-19T06:31:09.914Z,-1.95
2023-01-19T06:34:12.179Z,-2.08
2023-01-19T06:37:16.376Z,-2.06
2023-01-19T06:40:20.423Z,-2.19
2023-01-19T06:43:22.667Z,-2.22
2023-01-19T06:46:24.977Z,-2.16
2023-01-19T06:49:27.110Z,-2.26
2023-01-19T06:52:29.474Z,-2.20
2023-01-19T06:55:31.748Z,-2.23
2023-01-19T06:58:35.141Z,-2.36
2023-01-19T07:01:37.511Z,-2.41
2023-01-19T07:04:39.796Z,-2.34
2023-01-19T07:07:45.761Z,-2.38
2023-01-19T07:11:26.013Z,-2.40
2023-01-19T07:14:10.483Z,-2.43
2023-01-19T07:17:13.098Z,-2.34
2023-01-19T07:20:15.228Z,-2.29
2023-01-19T07:23:17.718Z,-2.29
2023-01-19T07:26:21.623Z,-2.40
2023-01-19T07:29:23.824Z,-2.34
2023-01-19T07:32:27.286Z,-2.47
2023-01-19T07:35:30.306Z,-2.47
2023-01-19T07:38:32.868Z,-2.43
2023-01-19T07:41:35.134Z,-2.33
2023-01-19T07:44:38.651Z,-2.41
2023-01-19T07:47:42.657Z,-2.43
2023-01-19T07:50:45.658Z,-2.50
2023-01-19T07:53:51.399Z,-2.34
2023-01-19T07:56:56.279Z,-2.48
2023-01-19T07:59:58.505Z,-2.44
2023-01-19T08:03:01.969Z,-2.43
2023-01-19T08:06:05.317Z,-2.33
2023-01-19T08:09:07.528Z,-2.46
2023-01-19T08:12:09.353Z,-2.33
2023-01-19T08:15:11.837Z,-2.43
2023-01-19T08:18:15.727Z,-2.39
2023-01-19T08:21:18.099Z,-2.46
2023-01-19T08:24:23.211Z,-2.47
2023-01-19T08:27:25.547Z,-2.44
2023-01-19T08:30:27.894Z,-2.36
2023-01-19T08:33:29.690Z,-2.43
2023-01-19T08:36:32.358Z,-2.32
2023-01-19T08:39:35.295Z,-2.26
2023-01-19T08:42:37.701Z,-2.40
2023-01-19T08:45:46.618Z,-2.39
2023-01-19T08:48:49.450Z,-2.29
2023-01-19T08:51:51.749Z,-2.21
2023-01-19T08:54:53.564Z,-2.28
2023-01-19T08:57:58.076Z,-2.16
2023-01-19T09:01:01.508Z,-2.20
2023-01-19T09:04:10.835Z,-2.15
2023-01-19T09:07:13.353Z,-2.04
2023-01-19T09:10:30.379Z,-2.08
2023-01-19T09:13:33.101Z,-1.98
2023-01-19T09:16:35.685Z,-1.95
2023-01-19T09:19:45.573Z,-1.97
2023-01-19T09:22:49.141Z,-1.91
2023-01-19T09:25:57.567Z,-1.83
2023-01-19T09:29:14.311Z,-1.90
2023-01-19T09:32:20.549Z,-1.79
2023-01-19T09:35:26.317Z,-1.83
2023-01-19T09:38:32.099Z,-1.65
2023-01-19T09:41:43.194Z,-1.64
2023-01-19T09:48:22.754Z,-1.62
2023-01-19T09:51:39.536Z,-1.42
2023-01-19T09:54:52.815Z,-1.43
2023-01-19T09:58:01.493Z,-1.44
2023-01-19T10:01:20.515Z,-1.39
2023-01-19T10:04:40.217Z,-1.29
2023-01-19T10:07:54.753Z,-1.15
2023-01-19T10:10:58.299Z,-1.08
2023-01-19T10:14:00.112Z,-1.02
2023-01-19T10:17:42.279Z,-0.95
2023-01-19T10:20:51.539Z,-0.99
2023-01-19T10:24:06.576Z,-0.80
2023-01-19T10:27:19.279Z,-0.75
2023-01-19T10:30:28.485Z,-0.73
2023-01-19T10:33:31.982Z,-0.77
2023-01-19T10:36:44.484Z,-0.65
2023-01-19T10:39:54.611Z,-0.60
2023-01-19T10:42:57.922Z,-0.49
2023-01-19T10:46:00.194Z,-0.59
2023-01-19T10:49:02.399Z,-0.54
2023-01-19T10:52:08.042Z,-0.38
2023-01-19T10:55:25.508Z,-0.49
2023-01-19T10:58:31.024Z,-0.44
2023-01-19T11:01:38.268Z,-0.30
2023-01-19T11:04:42.193Z,-0.24
2023-01-19T11:07:44.459Z,-0.26
2023-01-19T11:10:56.388Z,-0.21
2023-01-19T11:14:26.048Z,-0.13
2023-01-19T11:17:28.786Z,-0.11
2023-01-19T11:20:50.416Z,0.01
2023-01-19T11:23:55.466Z,-0.06
2023-01-19T11:27:03.723Z,-0.02
2023-01-19T11:30:24.745Z,0.12
2023-01-19T11:33:34.449Z,0.07
2023-01-19T11:36:36.979Z,0.14
2023-01-19T11:40:00.581Z,0.10
2023-01-19T11:43:02.724Z,0.22
2023-01-19T11:46:05.332Z,0.22
2023-01-19T11:49:20.047Z,0.24
2023-01-19T11:52:28.902Z,0.29
2023-01-19T11:55:34.266Z,0.46
2023-01-19T11:58:48.085Z,0.36
2023-01-19T12:01:57.541Z,0.48
2023-01-19T12:05:05.322Z,0.60
2023-01-19T12:08:17.241Z,0.63
2023-01-19T12:11:26.999Z,0.65
2023-01-19T12:14:39.163Z,0.75
2023-01-19T12:17:48.926Z,0.82
2023-01-19T12:20:54.290Z,0.86
2023-01-19T12:24:26.262Z,0.98
2023-01-19T12:27:43.471Z,0.95
2023-01-19T12:30:45.836Z,1.00
2023-01-19T12:33:48.112Z,1.06
2023-01-19T12:36:50.916Z,1.00
2023-01-19T12:39:53.998Z,0.94
2023-01-19T12:42:56.401Z,1.11
2023-01-19T12:45:58.472Z,0.97
2023-01-19T12:49:05.335Z,1.08
2023-01-19T12:52:19.094Z,1.12
2023-01-19T12:55:35.075Z,1.04
2023-01-19T12:58:36.826Z,1.11
2023-01-19T13:01:38.792Z,1.05
2023-01-19T13:04:40.840Z,0.99
2023-01-19T13:08:08.415Z,1.01
2023-01-19T13:11:17.137Z,0.93
2023-01-19T13:14:38.335Z,0.94
2023-01-19T13:17:54.664Z,0.95
2023-01-19T13:21:08.245Z,0.91
2023-01-19T13:24:12.957Z,0.89
2023-01-19T13:27:15.205Z,0.99
2023-01-19T13:30:20.210Z,0.96
2023-01-19T13:33:25.485Z,1.00
2023-01-19T13:36:31.437Z,1.00
2023-01-19T13:39:44.206Z,1.04
2023-01-19T13:42:48.206Z,0.98
2023-01-19T13:45:53.481Z,1.05
2023-01-19T13:49:04.852Z,0.98
2023-01-19T13:52:23.365Z,1.10
2023-01-19T13:55:28.637Z,0.97
2023-01-19T13:58:32.068Z,1.06
2023-01-19T14:01:34.609Z,1.13
2023-01-19T14:04:37.304Z,1.09
2023-01-19T14:07:39.574Z,1.11
2023-01-19T14:10:54.738Z,1.06
2023-01-19T14:13:56.576Z,0.86
2023-01-19T14:16:59.689Z,0.82
2023-01-19T14:20:01.808Z,0.84
2023-01-19T14:23:05.717Z,0.89
2023-01-19T14:26:38.776Z,0.96
2023-01-19T14:29:40.766Z,0.90
2023-01-19T14:32:47.678Z,0.95
2023-01-19T14:35:49.581Z,0.91
2023-01-19T14:38:52.967Z,0.84
2023-01-19T14:41:58.000Z,0.84
2023-01-19T14:45:03.081Z,0.81
2023-01-19T14:48:21.913Z,0.88
2023-01-19T14:51:26.223Z,0.91
2023-01-19T14:54:36.091Z,0.83
2023-01-19T14:57:38.373Z,0.76
2023-01-19T15:00:41.517Z,0.71
2023-01-19T15:03:45.628Z,0.63
2023-01-19T15:06:48.691Z,0.59
2023-01-19T15:09:51.906Z,0.68
2023-01-19T15:12:55.143Z,0.62
2023-01-19T15:15:59.005Z,0.67
2023-01-19T15:19:00.826Z,0.55
2023-01-19T15:22:02.696Z,0.61
2023-01-19T15:25:04.756Z,0.61
2023-01-19T15:28:12.272Z,0.57
2023-01-19T15:31:17.083Z,0.46
2023-01-19T15:34:19.055Z,0.46
2023-01-19T15:37:20.821Z,0.46
2023-01-19T15:40:23.384Z,0.43
2023-01-19T15:43:25.146Z,0.42
2023-01-19T15:46:26.922Z,0.44
2023-01-19T15:49:30.880Z,0.32
2023-01-19T15:52:32.507Z,0.29
2023-01-19T15:55:34.158Z,0.26
2023-01-19T15:58:35.920Z,0.34
2023-01-19T16:01:37.713Z,0.22
2023-01-19T16:04:39.485Z,0.12
2023-01-19T16:07:41.298Z,0.15
2023-01-19T16:10:43.285Z,0.16
2023-01-19T16:13:46.357Z,0.04
2023-01-19T16:16:48.339Z,0.15
2023-01-19T16:19:49.987Z,0.07
2023-01-19T16:22:51.820Z,0.09
2023-01-19T16:26:08.145Z,-0.03
2023-01-19T16:29:10.983Z,-0.10
2023-01-19T16:32:12.798Z,-0.05
2023-01-19T16:35:15.786Z,-0.12
2023-01-19T16:38:17.652Z,0.00
2023-01-19T16:41:20.072Z,-0.09
2023-01-19T16:44:21.983Z,-0.07
2023-01-19T16:47:24.397Z,-0.06
2023-01-19T16:50:26.349Z,-0.07
2023-01-19T16:53:29.731Z,-0.09
2023-01-19T16:56:32.048Z,-0.01
2023-01-19T16:59:33.994Z,-0.01
2023-01-19T17:02:35.870Z,-0.04
2023-01-19T17:05:39.140Z,0.04
2023-01-19T17:08:41.607Z,-0.08
2023-01-19T17:11:43.891Z,0.04
2023-01-19T17:14:47.572Z,-0.02
2023-01-19T17:17:49.477Z,0.04
2023-01-19T17:20:51.419Z,-0.03
2023-01-19T17:23:54.855Z,0.04
2023-01-19T17:26:56.530Z,-0.02
2023-01-19T17:29:58.261Z,-0.06
2023-01-19T17:33:01.461Z,-0.06
2023-01-19T17:36:12.835Z,-0.04
2023-01-19T17:39:15.020Z,-0.09
2023-01-19T17:42:16.876Z,-0.13
2023-01-19T17:45:18.719Z,-0.06
2023-01-19T17:48:46.713Z,-0.02
2023-01-19T17:51:55.812Z,-0.12
2023-01-19T17:54:57.927Z,-0.14
2023-01-19T17:58:00.409Z,-0.20
2023-01-19T18:01:31.864Z,-0.13
2023-01-19T18:04:33.805Z,-0.23
2023-01-19T18:07:35.671Z,-0.30
2023-01-19T18:10:38.164Z,-0.21
2023-01-19T18:13:42.893Z,-0.28
2023-01-19T18:16:44.782Z,-0.32
2023-01-19T18:19:46.825Z,-0.36
2023-01-19T18:22:48.613Z,-0.37
2023-01-19T18:25:50.657Z,-0.38
2023-01-19T18:28:56.315Z,-0.38
2023-01-19T18:31:58.171Z,-0.38
2023-01-19T18:35:00.055Z,-0.44
2023-01-19T18:38:01.832Z,-0.42
2023-01-19T18:41:04.825Z,-0.51
2023-01-19T18:44:06.536Z,-0.52
2023-01-19T18:47:08.418Z,-0.47
2023-01-19T18:50:11.091Z,-0.49
2023-01-19T18:53:13.765Z,-0.55
2023-01-19T18:56:16.576Z,-0.58
2023-01-19T18:59:18.517Z,-0.56
2023-01-19T19:02:20.443Z,-0.59
2023-01-19T19:05:22.264Z,-0.65
2023-01-19T19:08:24.293Z,-0.63
2023-01-19T19:11:26.880Z,-0.58
2023-01-19T19:14:28.769Z,-0.67
2023-01-19T19:17:30.530Z,-0.72
2023-01-19T19:20:32.326Z,-0.71
2023-01-19T19:23:34.880Z,-0.77
2023-01-19T19:26:36.753Z,-0.67
2023-01-19T19:29:38.506Z,-0.76
2023-01-19T19:32:40.294Z,-0.68
2023-01-19T19:35:42.155Z,-0.69
2023-01-19T19:38:44.905Z,-0.67
2023-01-19T19:41:46.869Z,-0.76
2023-01-19T19:44:48.730Z,-0.70
2023-01-19T19:47:51.003Z,-0.75
2023-01-19T19:50:53.200Z,-0.71
2023-01-19T19:53:57.237Z,-0.77
2023-01-19T19:56:59.072Z,-0.66
2023-01-19T20:00:00.965Z,-0.74
2023-01-19T20:03:02.712Z,-0.68
2023-01-19T20:06:13.990Z,-0.78
2023-01-19T20:09:16.764Z,-0.74
2023-01-19T20:12:18.736Z,-0.75
2023-01-19T20:15:20.593Z,-0.70
2023-01-19T20:18:28.494Z,-0.79
2023-01-19T20:21:32.904Z,-0.70
2023-01-19T20:24:34.687Z,-0.66
2023-01-19T20:27:36.426Z,-0.76
2023-01-19T20:30:38.188Z,-0.72
2023-01-19T20:33:42.035Z,-0.64
2023-01-19T20:36:46.891Z,-0.67
2023-01-19T20:39:49.023Z,-0.64
2023-01-19T20:42:50.730Z,-0.77
2023-01-19T20:45:52.889Z,-0.63
2023-01-19T20:48:54.853Z,-0.77
2023-01-19T20:51:56.916Z,-0.67
2023-01-19T20:54:58.704Z,-0.70
2023-01-19T20:58:00.394Z,-0.62
2023-01-19T21:01:10.445Z,-0.66
2023-01-19T21:04:12.824Z,-0.64
2023-01-19T21:07:14.710Z,-0.68
2023-01-19T21:10:19.546Z,-0.71
2023-01-19T21:13:21.382Z,-0.71
2023-01-19T21:16:24.937Z,-0.61
2023-01-19T21:19:26.753Z,-0.66
2023-01-19T21:22:28.428Z,-0.65
2023-01-19T21:25:30.175Z,-0.70
2023-01-19T21:28:31.893Z,-0.67
2023-01-19T21:31:33.765Z,-0.69
2023-01-19T21:34:35.666Z,-0.61
2023-01-19T21:37:37.442Z,-0.61
2023-01-19T21:40:39.204Z,-0.60
2023-01-19T21:43:42.633Z,-0.63
2023-01-19T21:46:44.353Z,-0.64
2023-01-19T21:49:46.048Z,-0.69
2023-01-19T21:52:47.770Z,-0.74
2023-01-19T21:55:49.572Z,-0.67
2023-01-19T21:58:51.355Z,-0.65
2023-01-19T22:01:53.289Z,-0.62
2023-01-19T22:04:55.188Z,-0.61
2023-01-19T22:07:56.884Z,-0.72
2023-01-19T22:11:05.939Z,-0.67
2023-01-19T22:14:07.807Z,-0.67
2023-01-19T22:17:09.605Z,-0.74
2023-01-19T22:20:11.654Z,-0.64
2023-01-19T22:23:13.541Z,-0.75
2023-01-19T22:26:15.864Z,-0.63
2023-01-19T22:29:17.771Z,-0.62
2023-01-19T22:32:19.598Z,-0.76
2023-01-19T22:35:21.599Z,-0.69
2023-01-19T22:38:23.274Z,-0.79
2023-01-19T22:41:30.546Z,-0.67
2023-01-19T22:44:32.259Z,-0.69
2023-01-19T22:47:33.979Z,-0.74
2023-01-19T22:50:35.694Z,-0.80
2023-01-19T22:53:37.398Z,-0.86
2023-01-19T22:56:40.978Z,-0.86
2023-01-19T22:59:43.662Z,-0.70
2023-01-19T23:02:45.520Z,-0.70
2023-01-19T23:05:47.348Z,-0.71
2023-01-19T23:08:49.418Z,-0.70
2023-01-19T23:11:51.428Z,-0.67
2023-01-19T23:14:53.072Z,-0.71
2023-01-19T23:17:54.824Z,-0.75
2023-01-19T23:20:56.523Z,-0.67
2023-01-19T23:24:02.993Z,-0.72
2023-01-19T23:27:04.724Z,-0.74
2023-01-19T23:30:08.020Z,-0.65
2023-01-19T23:33:09.722Z,-0.74
2023-01-19T23:36:12.158Z,-0.66
2023-01-19T23:39:16.904Z,-0.71
2023-01-19T23:42:18.593Z,-0.77
2023-01-19T23:45:20.385Z,-0.76
2023-01-19T23:48:22.121Z,-0.65
2023-01-19T23:51:26.904Z,-0.67
2023-01-19T23:54:28.845Z,-0.67
2023-01-19T23:57:30.632Z,-0.66
